Time;durP1;ratioP1;P1;durP2;ratioP2;P2;SDS_P1;SDS_P2;PMS_P1;PMS_P2;Temp;Humidity;BMP_temperature;BMP_pressure;BME280_temperature;BME280_humidity;BME280_pressure;Samples;Min_cycle;Max_cycle;Signal;HPM_P1;HPM_P2
2022/10/23 00:01:50;;;;;;;28.77;17.27;;;;;;;13.31;61.27;95136.38;4181405;28;20041;-59
2022/10/23 00:03:59;;;;;;;29.23;19.00;;;;;;;13.29;61.29;95141.00;4195301;28;20588;-56
2022/10/23 00:06:05;;;;;;;35.22;19.58;;;;;;;13.29;61.35;95138.34;4195434;28;20570;-58
2022/10/23 00:08:07;;;;;;;28.35;18.85;;;;;;;13.22;61.93;95139.97;4194464;28;20074;-55
2022/10/23 00:10:09;;;;;;;24.65;17.90;;;;;;;13.20;61.68;95147.22;4185248;28;20139;-57
2022/10/23 00:12:11;;;;;;;30.55;18.27;;;;;;;13.14;62.06;95134.72;4193462;28;20080;-57
2022/10/23 00:14:13;;;;;;;31.15;17.45;;;;;;;13.13;61.77;95131.28;4186585;28;20084;-58
2022/10/23 00:16:15;;;;;;;24.10;17.42;;;;;;;13.13;61.76;95127.81;4183082;28;20048;-57
2022/10/23 00:18:17;;;;;;;25.98;18.20;;;;;;;13.13;62.11;95133.09;4193100;28;20405;-59
2022/10/23 00:20:19;;;;;;;27.30;17.88;;;;;;;13.19;61.99;95124.53;4193781;28;20140;-58
2022/10/23 00:22:20;;;;;;;27.00;18.35;;;;;;;13.24;61.14;95115.16;4191393;28;20056;-58
2022/10/23 00:24:22;;;;;;;30.70;17.67;;;;;;;13.26;61.37;95107.91;4195742;28;20132;-56
2022/10/23 00:26:24;;;;;;;30.23;18.15;;;;;;;13.22;61.95;95114.50;4187041;28;20137;-57
2022/10/23 00:28:26;;;;;;;28.98;18.00;;;;;;;13.18;62.40;95125.50;4189409;28;20152;-58
2022/10/23 00:30:27;;;;;;;27.60;17.63;;;;;;;13.14;62.28;95119.75;4190625;28;20064;-57
2022/10/23 00:32:29;;;;;;;35.53;18.75;;;;;;;13.15;62.21;95118.78;4181968;28;20116;-55
2022/10/23 00:34:35;;;;;;;27.67;18.10;;;;;;;13.15;62.29;95134.56;4190430;28;20147;-58
2022/10/23 00:36:38;;;;;;;28.65;18.55;;;;;;;13.04;62.25;95133.06;4192748;28;20140;-58
2022/10/23 00:38:40;;;;;;;26.45;17.95;;;;;;;12.93;62.64;95128.13;4192978;28;20072;-58
2022/10/23 00:40:43;;;;;;;31.65;18.50;;;;;;;12.94;63.07;95131.59;4192349;28;20049;-58
2022/10/23 00:42:45;;;;;;;26.98;17.60;;;;;;;12.99;62.92;95124.88;4193389;28;20139;-60
2022/10/23 00:44:50;;;;;;;26.98;17.42;;;;;;;13.02;62.44;95126.34;4181459;28;20056;-58
2022/10/23 00:46:51;;;;;;;28.80;18.00;;;;;;;13.04;62.40;95125.19;4180586;28;20076;-58
2022/10/23 00:48:53;;;;;;;25.52;17.77;;;;;;;13.06;62.23;95112.69;4180241;28;20163;-56
2022/10/23 00:50:55;;;;;;;30.70;18.83;;;;;;;13.06;61.98;95115.31;4192798;28;20134;-61
2022/10/23 00:53:00;;;;;;;25.98;16.92;;;;;;;13.08;61.51;95120.44;4193189;28;20053;-58
2022/10/23 00:55:02;;;;;;;26.40;17.25;;;;;;;13.15;61.67;95112.69;4195057;28;20090;-57
2022/10/23 00:57:06;;;;;;;27.80;17.58;;;;;;;13.17;61.13;95122.06;4195220;28;20058;-57
2022/10/23 00:59:08;;;;;;;29.50;16.23;;;;;;;13.20;61.34;95120.91;4194321;28;20080;-57
2022/10/23 01:01:16;;;;;;;26.33;18.33;;;;;;;13.13;61.22;95114.66;4189505;28;20131;-59
2022/10/23 01:03:21;;;;;;;25.13;18.10;;;;;;;13.10;61.26;95106.13;4188378;28;20447;-57
2022/10/23 01:05:35;;;;;;;30.35;16.70;;;;;;;13.14;61.24;95100.50;4192459;28;20864;-60
2022/10/23 01:07:53;;;;;;;23.97;17.23;;;;;;;13.19;61.29;95082.44;4190742;28;20049;-58
2022/10/23 01:10:02;;;;;;;28.38;16.40;;;;;;;13.17;60.79;95090.50;4192247;28;20346;-58
2022/10/23 01:12:25;;;;;;;31.92;18.05;;;;;;;13.05;61.27;95097.88;4194823;28;20075;-58
2022/10/23 01:14:47;;;;;;;27.67;17.58;;;;;;;12.57;63.14;95110.00;4194004;28;20058;-58
2022/10/23 01:17:07;;;;;;;25.67;18.33;;;;;;;12.08;65.45;95115.91;4183574;28;20080;-57
2022/10/23 01:19:19;;;;;;;31.77;20.13;;;;;;;11.70;66.69;95125.03;4187235;28;20036;-58
2022/10/23 01:21:34;;;;;;;35.00;21.80;;;;;;;11.27;67.84;95142.47;4193944;28;20127;-58
2022/10/23 01:23:54;;;;;;;39.88;24.67;;;;;;;10.65;70.05;95145.88;4194267;28;20059;-57
2022/10/23 01:26:11;;;;;;;47.13;27.73;;;;;;;10.57;70.68;95152.84;4195200;28;20072;-54
2022/10/23 01:28:20;;;;;;;46.97;29.50;;;;;;;10.83;69.94;95155.53;4207920;28;20442;-57
2022/10/23 01:30:22;;;;;;;45.42;29.63;;;;;;;11.07;69.08;95161.00;4181264;28;20108;-56
2022/10/23 01:32:29;;;;;;;49.65;31.95;;;;;;;11.24;68.58;95171.63;4175812;28;20786;-58
2022/10/23 01:34:38;;;;;;;43.03;29.92;;;;;;;11.25;68.07;95186.41;4182862;28;20128;-55
2022/10/23 01:36:42;;;;;;;46.55;29.95;;;;;;;11.39;67.98;95188.47;4190557;28;20048;-58
2022/10/23 01:38:55;;;;;;;42.35;30.30;;;;;;;11.52;67.77;95190.69;4177351;28;20124;-56
2022/10/23 01:41:01;;;;;;;43.73;29.73;;;;;;;11.64;67.17;95196.53;4178499;28;20053;-56
2022/10/23 01:43:07;;;;;;;41.42;29.65;;;;;;;11.75;66.80;95198.09;4189269;28;20824;-58
2022/10/23 01:45:16;;;;;;;39.65;26.42;;;;;;;11.82;66.44;95207.81;4174825;28;20045;-57
2022/10/23 01:47:23;;;;;;;39.10;26.90;;;;;;;11.91;66.38;95203.47;4190148;28;20058;-57
2022/10/23 01:49:25;;;;;;;42.85;27.80;;;;;;;11.97;66.05;95188.91;4193099;28;20102;-57
2022/10/23 01:51:28;;;;;;;44.95;25.65;;;;;;;12.02;65.99;95184.84;4180002;28;20059;-56
2022/10/23 01:53:33;;;;;;;37.78;25.77;;;;;;;12.02;65.63;95181.38;4187512;28;20087;-56
2022/10/23 01:55:35;;;;;;;40.60;24.13;;;;;;;12.02;65.86;95173.50;4192759;28;20702;-56
2022/10/23 01:57:38;;;;;;;42.93;26.13;;;;;;;12.06;65.62;95169.56;4188059;28;20048;-57
2022/10/23 01:59:44;;;;;;;34.70;25.15;;;;;;;12.01;65.87;95162.19;4185778;28;20278;-56
2022/10/23 02:01:47;;;;;;;34.20;23.35;;;;;;;12.01;65.40;95163.97;4187390;28;20428;-57
2022/10/23 02:03:50;;;;;;;35.50;24.65;;;;;;;12.04;65.47;95172.34;4193267;28;20720;-58
2022/10/23 02:05:51;;;;;;;36.72;24.90;;;;;;;12.06;65.51;95172.19;4189411;28;20684;-60
2022/10/23 02:07:54;;;;;;;36.65;24.15;;;;;;;12.04;65.45;95179.41;4181637;28;20135;-58
2022/10/23 02:09:55;;;;;;;44.25;24.42;;;;;;;11.76;66.05;95189.22;4179321;28;20466;-57
2022/10/23 02:12:08;;;;;;;37.05;24.70;;;;;;;11.73;66.47;95193.00;4193758;28;20532;-58
2022/10/23 02:14:19;;;;;;;36.28;23.10;;;;;;;11.74;66.31;95189.38;4194047;28;20121;-59
2022/10/23 02:16:28;;;;;;;36.58;25.60;;;;;;;11.73;66.44;95184.31;4188488;28;20501;-59
2022/10/23 02:18:30;;;;;;;39.30;24.35;;;;;;;11.79;66.37;95194.19;4178234;28;20048;-59
2022/10/23 02:20:39;;;;;;;36.80;25.30;;;;;;;11.63;66.43;95200.94;4187099;28;20554;-57
2022/10/23 02:22:52;;;;;;;36.67;23.67;;;;;;;11.74;66.73;95207.75;4190691;28;20090;-56
2022/10/23 02:24:58;;;;;;;33.90;23.85;;;;;;;11.86;66.45;95203.91;4183347;28;20045;-56
2022/10/23 02:27:02;;;;;;;34.88;24.20;;;;;;;11.98;65.83;95209.75;4178443;28;20390;-57
2022/10/23 02:29:11;;;;;;;37.08;24.02;;;;;;;12.13;65.72;95215.25;4189150;28;20045;-59
2022/10/23 02:31:15;;;;;;;39.15;23.05;;;;;;;12.24;65.12;95219.44;4163146;28;20061;-56
2022/10/23 02:33:18;;;;;;;30.70;22.00;;;;;;;12.31;64.81;95220.44;4193777;28;20044;-58
2022/10/23 02:35:22;;;;;;;36.55;21.20;;;;;;;12.35;64.35;95213.06;4194197;28;20131;-57
2022/10/23 02:37:24;;;;;;;33.85;21.35;;;;;;;12.39;63.94;95217.00;4182879;28;20666;-56
2022/10/23 02:39:26;;;;;;;33.92;19.23;;;;;;;12.44;63.58;95215.56;4185624;28;20546;-58
2022/10/23 02:41:37;;;;;;;32.80;19.63;;;;;;;12.49;63.87;95212.47;4185838;28;20057;-58
2022/10/23 02:44:01;;;;;;;30.33;19.77;;;;;;;12.54;63.47;95210.19;4182933;28;20457;-58
2022/10/23 02:46:13;;;;;;;26.38;17.65;;;;;;;12.57;63.41;95206.44;4176338;28;20080;-58
2022/10/23 02:48:22;;;;;;;25.42;18.95;;;;;;;12.62;63.43;95201.50;4176514;28;20068;-58
2022/10/23 02:50:30;;;;;;;29.23;18.38;;;;;;;12.64;63.18;95204.81;4189208;28;20568;-59
2022/10/23 02:52:39;;;;;;;28.08;18.73;;;;;;;12.58;62.77;95213.31;4177582;28;20192;-58
2022/10/23 02:54:45;;;;;;;26.05;18.27;;;;;;;12.54;63.11;95201.47;4178235;28;20060;-57
2022/10/23 02:57:01;;;;;;;25.42;17.83;;;;;;;12.58;63.16;95205.44;4179956;28;20336;-56
2022/10/23 02:59:05;;;;;;;31.30;17.67;;;;;;;12.66;62.65;95211.53;4189141;28;20056;-54
2022/10/23 03:01:11;;;;;;;27.98;17.73;;;;;;;12.69;62.56;95205.13;4180534;28;20072;-56
2022/10/23 03:03:19;;;;;;;25.77;17.17;;;;;;;12.66;62.77;95210.72;4194085;28;20048;-56
2022/10/23 03:05:23;;;;;;;26.65;18.17;;;;;;;12.67;62.84;95210.56;4193344;28;20048;-58
2022/10/23 03:07:25;;;;;;;28.88;17.13;;;;;;;12.68;62.80;95214.84;4184582;28;20127;-56
2022/10/23 03:09:27;;;;;;;28.45;17.25;;;;;;;12.72;62.58;95217.16;4197555;28;20674;-58
2022/10/23 03:11:28;;;;;;;25.10;17.05;;;;;;;12.74;62.48;95221.28;4197002;28;20049;-58
2022/10/23 03:13:30;;;;;;;24.20;16.67;;;;;;;12.78;62.45;95219.16;4186816;28;20049;-59
2022/10/23 03:15:32;;;;;;;27.50;17.02;;;;;;;12.76;62.71;95207.97;4193127;28;20143;-59
2022/10/23 03:17:34;;;;;;;28.25;17.30;;;;;;;12.79;62.44;95220.78;4190907;28;20389;-57
2022/10/23 03:19:35;;;;;;;26.08;17.58;;;;;;;12.78;62.38;95219.97;4187974;28;20140;-57
2022/10/23 03:21:37;;;;;;;28.58;17.55;;;;;;;12.81;62.03;95209.13;4182616;28;20053;-57
2022/10/23 03:23:39;;;;;;;36.13;17.42;;;;;;;12.82;61.82;95221.31;4186649;28;20076;-57
2022/10/23 03:25:40;;;;;;;26.92;16.75;;;;;;;12.84;62.16;95221.97;4194289;28;20048;-57
2022/10/23 03:27:42;;;;;;;25.05;15.73;;;;;;;12.86;61.78;95217.38;4194681;28;20147;-55
2022/10/23 03:29:44;;;;;;;28.23;16.33;;;;;;;12.90;61.47;95223.13;4191984;28;20512;-57
2022/10/23 03:31:45;;;;;;;24.25;16.02;;;;;;;12.98;61.43;95227.59;4191892;28;20675;-58
2022/10/23 03:33:47;;;;;;;21.65;14.38;;;;;;;13.03;60.96;95230.53;4187362;28;20080;-59
2022/10/23 03:35:49;;;;;;;20.60;15.20;;;;;;;13.08;60.64;95236.16;4194391;28;20156;-58
2022/10/23 03:37:50;;;;;;;24.25;14.18;;;;;;;13.14;60.42;95242.56;4193658;28;20076;-58
2022/10/23 03:39:52;;;;;;;22.73;13.05;;;;;;;13.19;60.04;95240.28;4194554;28;20041;-56
2022/10/23 03:41:54;;;;;;;23.90;14.80;;;;;;;13.25;59.59;95242.25;4194546;28;20063;-58
2022/10/23 03:43:55;;;;;;;22.55;13.27;;;;;;;13.27;59.88;95233.22;4182188;28;20167;-58
2022/10/23 03:45:57;;;;;;;25.23;14.18;;;;;;;13.33;59.75;95242.28;4190805;28;20110;-59
2022/10/23 03:47:59;;;;;;;24.58;15.35;;;;;;;13.36;58.97;95236.72;4180230;28;20053;-58
2022/10/23 03:50:01;;;;;;;26.50;15.25;;;;;;;13.34;59.10;95249.22;4190358;28;20431;-56
2022/10/23 03:52:03;;;;;;;22.08;14.25;;;;;;;13.34;59.30;95241.31;4195128;28;20107;-58
2022/10/23 03:54:05;;;;;;;27.10;13.10;;;;;;;13.35;59.02;95240.31;4183644;28;20045;-56
2022/10/23 03:56:06;;;;;;;21.83;14.23;;;;;;;13.36;59.35;95246.41;4188075;28;20096;-56
2022/10/23 03:58:08;;;;;;;23.67;12.75;;;;;;;13.36;59.05;95255.16;4190474;28;20080;-56
2022/10/23 04:00:10;;;;;;;19.40;12.85;;;;;;;13.37;59.33;95256.78;4194415;28;20080;-58
2022/10/23 04:02:12;;;;;;;21.00;9.88;;;;;;;13.34;57.60;95259.75;4194428;28;20079;-59
2022/10/23 04:04:15;;;;;;;21.85;10.80;;;;;;;13.38;57.45;95262.84;4184849;28;20483;-59
2022/10/23 04:06:16;;;;;;;14.85;9.25;;;;;;;13.40;56.16;95264.38;4196750;28;20056;-59
2022/10/23 04:08:18;;;;;;;14.88;8.25;;;;;;;13.47;55.47;95275.06;4184899;28;20140;-59
2022/10/23 04:10:20;;;;;;;13.38;7.78;;;;;;;13.55;55.27;95267.19;4180997;28;20119;-58
2022/10/23 04:12:22;;;;;;;15.88;7.75;;;;;;;13.60;53.89;95264.88;4196378;28;20617;-58
2022/10/23 04:14:24;;;;;;;13.73;7.10;;;;;;;13.66;53.27;95258.94;4195087;28;20072;-59
2022/10/23 04:16:26;;;;;;;14.05;6.75;;;;;;;13.71;53.23;95253.19;4181731;28;20060;-60
2022/10/23 04:18:28;;;;;;;13.85;7.35;;;;;;;13.77;52.94;95254.34;4194827;28;20048;-58
2022/10/23 04:20:30;;;;;;;11.68;6.30;;;;;;;13.81;52.55;95256.50;4187539;28;20077;-59
2022/10/23 04:22:32;;;;;;;16.27;6.30;;;;;;;13.88;52.37;95267.19;4179761;28;20044;-59
2022/10/23 04:24:34;;;;;;;12.15;6.60;;;;;;;13.89;52.77;95258.28;4179824;28;20077;-58
2022/10/23 04:26:35;;;;;;;13.07;6.35;;;;;;;13.91;52.35;95258.94;4183289;28;20132;-59
2022/10/23 04:28:37;;;;;;;12.02;5.82;;;;;;;14.00;52.12;95259.75;4196172;28;20052;-61
2022/10/23 04:30:40;;;;;;;14.90;6.18;;;;;;;14.03;51.62;95265.53;4193451;28;20257;-59
2022/10/23 04:32:42;;;;;;;9.87;5.50;;;;;;;14.04;51.07;95267.16;4195728;28;20219;-59
2022/10/23 04:34:43;;;;;;;9.63;6.30;;;;;;;14.10;51.10;95258.59;4181408;28;20692;-58
2022/10/23 04:36:45;;;;;;;13.77;6.05;;;;;;;14.11;50.92;95254.97;4181322;28;20099;-58
2022/10/23 04:38:47;;;;;;;12.15;5.97;;;;;;;14.16;50.75;95258.94;4180559;28;20294;-60
2022/10/23 04:40:49;;;;;;;10.80;5.47;;;;;;;14.20;50.77;95254.97;4180049;28;20056;-59
2022/10/23 04:42:50;;;;;;;10.30;5.60;;;;;;;14.21;50.21;95257.41;4195825;28;20048;-59
2022/10/23 04:44:52;;;;;;;9.85;5.38;;;;;;;14.17;50.35;95258.72;4186961;28;20763;-59
2022/10/23 04:46:54;;;;;;;16.95;6.03;;;;;;;14.21;50.42;95257.41;4189536;28;20056;-63
2022/10/23 04:48:55;;;;;;;11.63;5.40;;;;;;;14.20;50.17;95261.06;4194700;28;20052;-58
2022/10/23 04:50:59;;;;;;;11.13;5.20;;;;;;;14.24;50.41;95259.72;4192799;28;20077;-59
2022/10/23 04:53:01;;;;;;;13.65;5.80;;;;;;;14.25;50.11;95260.53;4184691;28;20087;-59
2022/10/23 04:55:04;;;;;;;11.73;5.13;;;;;;;14.28;49.82;95262.84;4191066;28;20135;-56
2022/10/23 04:57:05;;;;;;;15.68;5.07;;;;;;;14.25;49.11;95261.34;4193746;28;20080;-59
2022/10/23 04:59:07;;;;;;;7.57;4.35;;;;;;;14.39;48.68;95253.75;4192626;28;20051;-58
2022/10/23 05:01:09;;;;;;;13.18;4.78;;;;;;;14.49;48.19;95265.75;4180309;28;20103;-58
2022/10/23 05:03:11;;;;;;;10.48;4.90;;;;;;;14.52;47.98;95270.69;4181923;28;20106;-58
2022/10/23 05:05:13;;;;;;;10.82;4.05;;;;;;;14.56;47.87;95267.75;4182978;28;20060;-59
2022/10/23 05:07:15;;;;;;;10.45;5.15;;;;;;;14.58;47.78;95285.03;4179058;28;20076;-58
2022/10/23 05:09:17;;;;;;;11.63;4.88;;;;;;;14.62;47.84;95286.34;4186743;28;20109;-60
2022/10/23 05:11:19;;;;;;;7.70;5.70;;;;;;;14.69;47.88;95283.84;4194990;28;20489;-65
2022/10/23 05:13:21;;;;;;;10.40;5.15;;;;;;;14.75;48.40;95280.53;4194463;28;20068;-63
2022/10/23 05:15:22;;;;;;;13.00;5.00;;;;;;;14.84;48.74;95279.53;4184424;28;20083;-64
2022/10/23 05:17:39;;;;;;;10.15;5.15;;;;;;;14.93;48.36;95278.50;4187432;28;20048;-66
2022/10/23 05:19:43;;;;;;;8.00;4.55;;;;;;;15.03;48.17;95278.25;4190350;28;20049;-64
2022/10/23 05:21:46;;;;;;;16.08;5.25;;;;;;;15.09;48.43;95280.22;4181821;28;20049;-64
2022/10/23 05:23:48;;;;;;;9.47;5.40;;;;;;;15.14;48.20;95277.91;4180373;28;20049;-64
2022/10/23 05:25:49;;;;;;;10.85;5.43;;;;;;;15.24;47.57;95284.78;4180677;28;20382;-63
2022/10/23 05:27:51;;;;;;;10.60;5.07;;;;;;;15.30;47.87;95286.72;4194409;28;20050;-64
2022/10/23 05:29:53;;;;;;;11.40;5.45;;;;;;;15.44;47.85;95291.25;4185328;28;20405;-64
2022/10/23 05:31:57;;;;;;;10.15;5.50;;;;;;;15.59;47.16;95290.50;4192323;28;20099;-64
2022/10/23 05:33:59;;;;;;;15.85;5.47;;;;;;;15.49;47.98;95291.56;4182258;28;20141;-64
2022/10/23 05:36:02;;;;;;;12.85;5.45;;;;;;;15.51;48.63;95305.41;4183557;28;20619;-64
2022/10/23 05:38:04;;;;;;;8.57;4.95;;;;;;;15.54;48.74;95310.31;4188324;28;20095;-64
2022/10/23 05:40:06;;;;;;;12.55;5.57;;;;;;;15.50;48.95;95311.66;4180070;28;20469;-64
2022/10/23 05:42:08;;;;;;;11.73;5.30;;;;;;;15.45;49.57;95321.94;4192222;28;20048;-64
2022/10/23 05:44:09;;;;;;;12.80;5.90;;;;;;;15.47;49.74;95321.78;4179296;28;20048;-66
2022/10/23 05:46:11;;;;;;;13.07;5.90;;;;;;;15.41;50.28;95325.91;4177769;28;20127;-69
2022/10/23 05:48:16;;;;;;;10.00;5.70;;;;;;;15.42;50.35;95335.47;4188064;28;20051;-66
2022/10/23 05:50:37;;;;;;;11.40;5.32;;;;;;;15.36;51.40;95336.19;4193149;28;20048;-63
2022/10/23 05:52:39;;;;;;;13.30;6.35;;;;;;;15.36;52.24;95336.19;4194247;28;20513;-64
2022/10/23 05:54:41;;;;;;;14.63;5.78;;;;;;;15.41;52.24;95343.59;4187564;28;20055;-65
2022/10/23 05:56:43;;;;;;;15.23;5.53;;;;;;;15.40;52.75;95339.28;4194961;28;20127;-59
2022/10/23 05:58:44;;;;;;;9.55;5.30;;;;;;;15.47;52.87;95343.72;4184553;28;20104;-59
2022/10/23 06:00:46;;;;;;;11.25;5.90;;;;;;;15.58;53.17;95353.06;4193634;28;20144;-57
2022/10/23 06:02:48;;;;;;;11.55;5.57;;;;;;;15.62;54.05;95350.91;4195287;28;20102;-58
2022/10/23 06:04:49;;;;;;;11.50;5.82;;;;;;;15.69;54.33;95362.41;4194675;28;20139;-59
2022/10/23 06:06:51;;;;;;;13.70;5.45;;;;;;;15.80;54.39;95363.84;4195115;28;20489;-59
2022/10/23 06:08:53;;;;;;;14.20;6.28;;;;;;;15.88;55.01;95359.34;4194144;28;20524;-59
2022/10/23 06:10:55;;;;;;;11.70;5.78;;;;;;;15.89;55.62;95358.34;4194930;28;20471;-58
2022/10/23 06:12:56;;;;;;;9.35;5.60;;;;;;;15.88;56.12;95353.25;4191333;28;20059;-60
2022/10/23 06:14:58;;;;;;;10.40;5.28;;;;;;;15.75;57.01;95361.75;4193239;28;20487;-58
2022/10/23 06:17:00;;;;;;;10.52;5.32;;;;;;;15.82;57.45;95367.16;4193647;28;20045;-61
2022/10/23 06:19:02;;;;;;;13.45;5.00;;;;;;;15.77;58.07;95365.84;4183471;28;20095;-61
2022/10/23 06:21:04;;;;;;;14.10;5.82;;;;;;;15.81;58.42;95371.63;4176850;28;20067;-59
2022/10/23 06:23:06;;;;;;;10.45;5.40;;;;;;;15.90;58.12;95373.19;4178871;28;20052;-60
2022/10/23 06:25:08;;;;;;;10.52;5.30;;;;;;;15.94;58.49;95378.97;4185553;28;20132;-62
2022/10/23 06:27:10;;;;;;;12.93;5.30;;;;;;;15.94;58.78;95379.78;4182763;28;20396;-62
2022/10/23 06:29:11;;;;;;;7.68;4.57;;;;;;;16.00;58.87;95374.78;4192697;28;20103;-61
2022/10/23 06:31:15;;;;;;;10.88;5.30;;;;;;;15.93;59.35;95380.75;4193282;28;20136;-61
2022/10/23 06:33:16;;;;;;;10.18;4.85;;;;;;;15.88;59.61;95377.03;4194059;28;20131;-61
2022/10/23 06:35:18;;;;;;;10.90;5.57;;;;;;;15.89;59.83;95383.94;4183546;28;20053;-63
2022/10/23 06:37:20;;;;;;;10.18;5.35;;;;;;;15.95;59.72;95380.59;4179943;28;20087;-62
2022/10/23 06:39:21;;;;;;;11.45;5.35;;;;;;;15.99;59.86;95370.50;4198309;28;20512;-59
2022/10/23 06:41:26;;;;;;;7.35;4.97;;;;;;;16.06;59.64;95382.00;4196762;28;20052;-60
2022/10/23 06:43:28;;;;;;;7.85;5.13;;;;;;;16.17;59.37;95385.09;4188099;28;20140;-59
2022/10/23 06:45:32;;;;;;;9.05;5.57;;;;;;;16.19;59.46;95390.16;4193369;28;20056;-60
2022/10/23 06:47:34;;;;;;;10.43;5.32;;;;;;;16.31;59.49;95393.22;4188149;28;20095;-60
2022/10/23 06:49:36;;;;;;;9.52;5.07;;;;;;;16.48;58.65;95397.38;4181872;28;20124;-61
2022/10/23 06:51:37;;;;;;;10.32;5.38;;;;;;;16.59;58.53;95389.00;4181648;28;20504;-61
2022/10/23 06:53:39;;;;;;;8.02;5.43;;;;;;;16.56;58.72;95396.47;4181676;28;20449;-58
2022/10/23 06:55:41;;;;;;;7.55;5.55;;;;;;;16.63;58.56;95392.13;4181716;28;20538;-61
2022/10/23 06:57:43;;;;;;;10.77;5.70;;;;;;;16.68;58.31;95392.41;4186365;28;20058;-63
2022/10/23 06:59:45;;;;;;;10.05;5.72;;;;;;;16.71;58.32;95399.16;4197970;28;20040;-62
2022/10/23 07:01:47;;;;;;;13.73;5.97;;;;;;;16.77;58.34;95391.31;4196371;28;20059;-63
2022/10/23 07:03:49;;;;;;;8.02;5.18;;;;;;;16.88;58.17;95398.03;4197343;28;20049;-64
2022/10/23 07:05:50;;;;;;;8.82;5.47;;;;;;;16.99;57.66;95396.75;4197290;28;20675;-65
2022/10/23 07:07:52;;;;;;;15.02;6.00;;;;;;;16.98;57.20;95395.94;4197861;28;20099;-66
2022/10/23 07:09:54;;;;;;;14.90;5.55;;;;;;;17.03;57.46;95408.63;4197625;28;20054;-65
2022/10/23 07:11:55;;;;;;;11.32;6.00;;;;;;;16.93;57.67;95403.63;4197448;28;20055;-65
2022/10/23 07:13:57;;;;;;;13.23;5.72;;;;;;;16.77;58.01;95404.53;4197778;28;20124;-65
2022/10/23 07:15:59;;;;;;;12.52;5.75;;;;;;;16.91;57.71;95404.81;4195311;28;20127;-64
2022/10/23 07:18:00;;;;;;;8.38;6.18;;;;;;;16.89;57.85;95401.50;4191959;28;20639;-63
2022/10/23 07:20:02;;;;;;;13.52;6.30;;;;;;;16.77;58.18;95399.25;4195119;28;20128;-64
2022/10/23 07:22:04;;;;;;;13.73;6.00;;;;;;;16.72;58.33;95390.22;4180387;28;20053;-64
2022/10/23 07:24:06;;;;;;;10.75;5.78;;;;;;;16.73;58.56;95397.97;4182206;28;20045;-64
2022/10/23 07:26:15;;;;;;;10.65;6.13;;;;;;;16.85;58.36;95393.09;4193735;28;20143;-65
2022/10/23 07:28:17;;;;;;;15.05;5.68;;;;;;;16.98;57.75;95408.34;4180016;28;20080;-65
2022/10/23 07:30:19;;;;;;;10.52;5.82;;;;;;;16.74;57.78;95399.63;4186958;28;20104;-65
2022/10/23 07:32:22;;;;;;;9.50;5.72;;;;;;;16.71;57.43;95400.00;4186274;28;20053;-65
2022/10/23 07:34:24;;;;;;;9.65;5.75;;;;;;;16.98;57.04;95400.41;4182738;28;20092;-65
2022/10/23 07:36:26;;;;;;;9.48;5.57;;;;;;;17.19;55.78;95403.16;4192550;28;20148;-63
2022/10/23 07:38:27;;;;;;;17.30;5.97;;;;;;;17.32;55.45;95397.22;4180848;28;20384;-64
2022/10/23 07:40:30;;;;;;;10.35;5.68;;;;;;;17.49;54.76;95392.56;4190898;28;20049;-64
2022/10/23 07:42:32;;;;;;;12.02;5.38;;;;;;;17.46;54.74;95395.56;4196186;28;20083;-64
2022/10/23 07:44:33;;;;;;;9.40;5.78;;;;;;;17.36;54.69;95392.41;4195169;28;20135;-64
2022/10/23 07:46:35;;;;;;;10.73;6.03;;;;;;;17.55;54.20;95394.47;4195231;28;20076;-65
2022/10/23 07:48:37;;;;;;;11.85;5.85;;;;;;;17.68;53.58;95387.66;4184155;28;20470;-65
2022/10/23 07:50:39;;;;;;;11.02;6.05;;;;;;;17.62;53.31;95389.25;4181362;28;20623;-64
2022/10/23 07:52:41;;;;;;;13.18;6.55;;;;;;;17.70;53.04;95383.00;4187486;28;20054;-64
2022/10/23 07:54:43;;;;;;;10.52;5.68;;;;;;;17.73;52.93;95390.59;4197365;28;20101;-63
2022/10/23 07:56:44;;;;;;;12.93;4.85;;;;;;;17.85;52.68;95391.75;4195901;28;20512;-64
2022/10/23 07:58:46;;;;;;;8.88;4.75;;;;;;;17.97;52.33;95390.28;4196212;28;20089;-64
2022/10/23 08:00:57;;;;;;;11.93;4.88;;;;;;;18.11;51.98;95383.28;4182170;28;20076;-63
2022/10/23 08:02:59;;;;;;;13.35;5.25;;;;;;;18.20;51.82;95389.28;4187447;28;20083;-64
2022/10/23 08:05:00;;;;;;;7.60;4.97;;;;;;;18.19;51.68;95372.53;4180897;28;20133;-65
2022/10/23 08:07:02;;;;;;;9.68;4.88;;;;;;;18.30;51.76;95391.59;4195855;28;20493;-63
2022/10/23 08:09:04;;;;;;;12.88;5.68;;;;;;;18.43;51.34;95391.72;4191359;28;20140;-65
2022/10/23 08:11:10;;;;;;;10.25;4.78;;;;;;;18.46;51.31;95387.91;4193631;28;20056;-65
2022/10/23 08:13:13;;;;;;;15.27;4.72;;;;;;;18.47;51.59;95402.78;4185145;28;20490;-63
2022/10/23 08:15:14;;;;;;;8.43;4.43;;;;;;;18.51;51.73;95396.09;4177669;28;20453;-65
2022/10/23 08:17:16;;;;;;;8.48;4.13;;;;;;;18.59;51.37;95393.31;4179927;28;20055;-67
2022/10/23 08:19:17;;;;;;;7.18;4.93;;;;;;;18.49;51.61;95406.88;4189457;28;20554;-65
2022/10/23 08:21:19;;;;;;;11.20;5.18;;;;;;;18.73;51.43;95395.03;4194771;28;20086;-67
2022/10/23 08:23:21;;;;;;;9.50;5.38;;;;;;;18.80;51.05;95393.28;4179377;28;20048;-65
2022/10/23 08:25:22;;;;;;;5.57;4.28;;;;;;;18.85;50.81;95394.56;4183696;28;20132;-64
2022/10/23 08:27:26;;;;;;;9.15;4.45;;;;;;;18.71;50.49;95391.75;4181002;28;20045;-65
2022/10/23 08:29:28;;;;;;;8.80;4.72;;;;;;;18.77;50.90;95393.63;4193071;28;20084;-65
2022/10/23 08:31:29;;;;;;;14.00;4.95;;;;;;;18.86;50.78;95394.34;4193574;28;20052;-68
2022/10/23 08:33:31;;;;;;;8.88;4.75;;;;;;;18.95;50.55;95393.19;4188754;28;20114;-63
2022/10/23 08:35:37;;;;;;;8.63;5.15;;;;;;;19.02;51.10;95395.91;4190289;28;20058;-66
2022/10/23 08:37:38;;;;;;;9.20;4.72;;;;;;;18.43;53.02;95391.72;4195603;28;20048;-63
2022/10/23 08:39:40;;;;;;;13.02;4.53;;;;;;;18.49;53.13;95414.03;4185262;28;20079;-64
2022/10/23 08:41:47;;;;;;;7.97;4.53;;;;;;;18.49;53.05;95387.50;4194392;28;20056;-67
2022/10/23 08:43:53;;;;;;;10.02;4.43;;;;;;;18.52;53.12;95397.72;4194193;28;20139;-68
2022/10/23 08:45:59;;;;;;;8.13;3.95;;;;;;;18.57;53.12;95387.38;4181221;28;20115;-65
2022/10/23 08:48:09;;;;;;;10.23;4.28;;;;;;;18.58;53.02;95389.84;4188676;28;20041;-67
2022/10/23 08:50:25;;;;;;;11.38;4.57;;;;;;;18.60;53.06;95392.28;4179149;28;20371;-67
2022/10/23 08:52:38;;;;;;;6.90;4.53;;;;;;;18.71;52.69;95394.41;4183067;28;20056;-67
2022/10/23 08:55:26;;;;;;;8.52;3.90;;;;;;;18.43;52.77;95399.69;4180728;28;20061;-65
2022/10/23 08:57:34;;;;;;;10.68;5.00;;;;;;;18.66;52.62;95382.75;4150781;28;20211;-66
2022/10/23 08:59:51;;;;;;;11.30;4.47;;;;;;;18.83;52.23;95390.25;4145235;28;20830;-63
2022/10/23 09:02:23;;;;;;;14.90;5.03;;;;;;;18.60;52.67;95400.25;4139581;28;20082;-63
2022/10/23 09:04:25;;;;;;;9.50;4.43;;;;;;;18.83;52.21;95389.44;4137868;28;20112;-66
2022/10/23 09:06:33;;;;;;;11.00;4.22;;;;;;;18.99;51.89;95398.91;4160698;28;20060;-67
2022/10/23 09:08:55;;;;;;;10.45;5.72;;;;;;;19.22;51.61;95403.97;4143795;28;20046;-65
2022/10/23 09:11:10;;;;;;;9.40;4.78;;;;;;;18.97;52.08;95393.81;4137127;28;20046;-64
2022/10/23 09:13:27;;;;;;;8.38;4.35;;;;;;;19.26;51.33;95401.75;4143179;28;20133;-64
2022/10/23 09:15:39;;;;;;;9.05;4.72;;;;;;;19.21;51.66;95397.03;4128907;28;20126;-65
2022/10/23 09:17:42;;;;;;;7.47;4.18;;;;;;;19.36;50.91;95383.59;4143968;28;20092;-65
2022/10/23 09:19:46;;;;;;;6.57;4.00;;;;;;;19.63;50.10;95385.38;4157255;28;20212;-63
2022/10/23 09:21:51;;;;;;;7.13;4.00;;;;;;;19.75;49.67;95390.97;4134617;28;20232;-66
2022/10/23 09:23:53;;;;;;;9.50;4.07;;;;;;;19.60;50.23;95391.09;4155118;28;20053;-66
2022/10/23 09:25:55;;;;;;;10.40;3.97;;;;;;;19.52;50.21;95399.22;4157694;28;20046;-67
2022/10/23 09:27:59;;;;;;;8.73;3.85;;;;;;;19.55;50.07;95388.22;4152340;28;20651;-65
2022/10/23 09:30:05;;;;;;;6.85;3.70;;;;;;;19.60;49.65;95400.91;4192690;28;20045;-66
2022/10/23 09:32:07;;;;;;;12.05;3.85;;;;;;;19.58;49.81;95387.81;4192118;28;20127;-66
2022/10/23 09:34:21;;;;;;;6.68;3.42;;;;;;;19.71;49.63;95386.25;4189823;28;20135;-66
2022/10/23 09:36:26;;;;;;;6.05;3.47;;;;;;;19.56;49.83;95381.88;4193166;28;20084;-64
2022/10/23 09:38:32;;;;;;;7.60;3.53;;;;;;;19.67;49.45;95383.16;4193570;28;20515;-64